Time,TemperatureF,DewpointF,PressureIn,WindDirection,WindDirectionDegrees,WindSpeedMPH,WindSpeedGustMPH,Humidity,HourlyPrecipIn,Conditions,Clouds,dailyrainin,SoftwareType,DateUTC
2013-04-11 00:03:00,43.5,43.0,29.91,NNE,22,1.6,-999.0,98,-99.99,,,0.00,Acu-Link.com,2013-04-11 05:03:00,
2013-04-11 00:18:00,43.5,43.0,29.90,NNE,22,4.7,-999.0,98,-99.99,,,0.00,Acu-Link.com,2013-04-11 05:18:00,
2013-04-11 00:33:00,43.5,43.0,29.91,NNW,337,0.0,-999.0,98,-99.99,,,0.00,Acu-Link.com,2013-04-11 05:33:00,
2013-04-11 00:49:00,43.3,42.8,29.92,North,0,4.3,-999.0,98,-99.99,,,0.00,Acu-Link.com,2013-04-11 05:49:00,
2013-04-11 01:04:00,43.3,42.8,29.92,North,0,3.8,-999.0,98,-99.99,,,0.00,Acu-Link.com,2013-04-11 06:04:00,
2013-04-11 01:19:00,43.3,42.5,29.92,NNW,337,2.7,-999.0,97,-99.99,,,0.00,Acu-Link.com,2013-04-11 06:19:00,
2013-04-11 01:34:00,43.3,42.0,29.92,ENE,67,4.3,-999.0,95,-99.99,,,0.00,Acu-Link.com,2013-04-11 06:34:00,
2013-04-11 01:50:00,43.5,41.6,29.91,NNW,337,1.6,-999.0,93,-99.99,,,0.00,Acu-Link.com,2013-04-11 06:50:00,
2013-04-11 02:05:00,43.5,41.1,29.92,West,270,2.2,-999.0,91,-99.99,,,0.00,Acu-Link.com,2013-04-11 07:05:00,
2013-04-11 02:20:00,43.5,41.1,29.90,WNW,292,2.7,-999.0,91,-99.99,,,0.00,Acu-Link.com,2013-04-11 07:20:00,
2013-04-11 02:35:00,43.3,41.5,29.90,WNW,292,1.6,-999.0,93,-99.99,,,0.00,Acu-Link.com,2013-04-11 07:35:00,
2013-04-11 02:50:00,43.3,41.5,29.90,West,270,2.2,-999.0,93,-99.99,,,0.00,Acu-Link.com,2013-04-11 07:50:00,
2013-04-11 03:07:00,43.2,41.3,29.89,NNW,337,3.1,-999.0,93,-99.99,,,0.00,Acu-Link.com,2013-04-11 08:07:00,
2013-04-11 03:22:00,43.2,41.0,29.89,North,0,2.2,-999.0,92,-99.99,,,0.00,Acu-Link.com,2013-04-11 08:22:00,
2013-04-11 03:37:00,43.3,40.9,29.87,NE,45,1.1,-999.0,91,-99.99,,,0.00,Acu-Link.com,2013-04-11 08:37:00,
2013-04-11 03:52:00,43.5,40.5,29.86,North,0,1.6,-999.0,89,-99.99,,,0.00,Acu-Link.com,2013-04-11 08:52:00,
2013-04-11 04:08:00,43.5,39.6,29.85,NNW,337,3.8,-999.0,86,-99.99,,,0.00,Acu-Link.com,2013-04-11 09:08:00,
2013-04-11 04:23:00,43.7,38.3,29.82,NW,315,4.7,-999.0,81,-99.99,,,0.00,Acu-Link.com,2013-04-11 09:23:00,
2013-04-11 04:38:00,43.7,37.9,29.83,WNW,292,2.7,-999.0,80,-99.99,,,0.00,Acu-Link.com,2013-04-11 09:38:00,
2013-04-11 04:53:00,43.7,37.3,29.84,WNW,292,3.1,-999.0,78,-99.99,,,0.00,Acu-Link.com,2013-04-11 09:53:00,
2013-04-11 05:08:00,43.5,37.4,29.84,NNW,337,2.2,-999.0,79,-99.99,,,0.00,Acu-Link.com,2013-04-11 10:08:00,
2013-04-11 05:23:00,42.8,38.9,29.83,NNW,337,2.7,-999.0,86,-99.99,,,0.00,Acu-Link.com,2013-04-11 10:23:00,
2013-04-11 05:39:00,42.3,39.3,29.83,North,0,2.7,-999.0,89,-99.99,,,0.00,Acu-Link.com,2013-04-11 10:39:00,
2013-04-11 05:54:00,41.9,40.0,29.83,West,270,2.2,-999.0,93,-99.99,,,0.00,Acu-Link.com,2013-04-11 10:54:00,
2013-04-11 06:09:00,41.2,39.9,29.84,NNE,22,0.0,-999.0,95,-99.99,,,0.00,Acu-Link.com,2013-04-11 11:09:00,
2013-04-11 06:24:00,40.3,39.8,29.85,WNW,292,0.0,-999.0,98,-99.99,,,0.00,Acu-Link.com,2013-04-11 11:24:00,
2013-04-11 06:39:00,39.4,38.9,29.84,West,270,0.0,-999.0,98,-99.99,,,0.00,Acu-Link.com,2013-04-11 11:39:00,
2013-04-11 06:55:00,38.8,38.3,29.84,West,270,2.2,-999.0,98,-99.99,,,0.00,Acu-Link.com,2013-04-11 11:55:00,
2013-04-11 07:10:00,38.7,38.1,29.85,West,270,1.6,-999.0,98,-99.99,,,0.00,Acu-Link.com,2013-04-11 12:10:00,
2013-04-11 07:25:00,38.3,37.8,29.86,West,270,0.0,-999.0,98,-99.99,,,0.00,Acu-Link.com,2013-04-11 12:25:00,
2013-04-11 07:40:00,38.1,37.6,29.86,West,270,0.0,-999.0,98,-99.99,,,0.00,Acu-Link.com,2013-04-11 12:40:00,
2013-04-11 07:55:00,39.6,39.0,29.88,NE,45,0.0,-999.0,98,-99.99,,,0.00,Acu-Link.com,2013-04-11 12:55:00,
2013-04-11 08:26:00,43.2,39.6,29.88,WNW,292,2.7,-999.0,87,-99.99,,,0.00,Acu-Link.com,2013-04-11 13:26:00,
2013-04-11 08:41:00,44.4,39.0,29.87,NNE,22,4.7,-999.0,81,-99.99,,,0.00,Acu-Link.com,2013-04-11 13:41:00,
2013-04-11 08:56:00,45.7,38.6,29.88,NNW,337,2.7,-999.0,76,-99.99,,,0.00,Acu-Link.com,2013-04-11 13:56:00,
2013-04-11 09:12:00,46.4,36.8,29.88,NE,45,5.8,-999.0,69,-99.99,,,0.00,Acu-Link.com,2013-04-11 14:12:00,
2013-04-11 09:27:00,46.8,36.0,29.88,North,0,4.7,-999.0,66,-99.99,,,0.00,Acu-Link.com,2013-04-11 14:27:00,
2013-04-11 09:42:00,48.9,36.9,29.88,NW,315,4.3,-999.0,63,-99.99,,,0.00,Acu-Link.com,2013-04-11 14:42:00,
2013-04-11 09:57:00,50.2,36.4,29.87,West,270,4.7,-999.0,59,-99.99,,,0.00,Acu-Link.com,2013-04-11 14:57:00,
2013-04-11 10:12:00,50.5,36.3,29.87,East,90,4.7,-999.0,58,-99.99,,,0.00,Acu-Link.com,2013-04-11 15:12:00,
2013-04-11 10:28:00,52.9,37.6,29.88,NNE,22,4.7,-999.0,56,-99.99,,,0.00,Acu-Link.com,2013-04-11 15:28:00,
2013-04-11 10:43:00,51.8,36.6,29.87,NNE,22,3.1,-999.0,56,-99.99,,,0.00,Acu-Link.com,2013-04-11 15:43:00,
2013-04-11 10:58:00,52.9,36.7,29.87,WNW,292,2.2,-999.0,54,-99.99,,,0.00,Acu-Link.com,2013-04-11 15:58:00,
2013-04-11 11:13:00,53.8,36.6,29.87,NE,45,4.3,-999.0,52,-99.99,,,0.00,Acu-Link.com,2013-04-11 16:13:00,
2013-04-11 11:28:00,54.9,36.1,29.87,NNW,337,0.0,-999.0,49,-99.99,,,0.00,Acu-Link.com,2013-04-11 16:28:00,
2013-04-11 11:44:00,56.3,38.9,29.87,NNE,22,4.3,-999.0,52,-99.99,,,0.00,Acu-Link.com,2013-04-11 16:44:00,
2013-04-11 11:59:00,57.9,40.9,29.86,North,0,2.2,-999.0,53,-99.99,,,0.00,Acu-Link.com,2013-04-11 16:59:00,
2013-04-11 12:14:00,59.2,40.0,29.85,ENE,67,3.8,-999.0,49,-99.99,,,0.00,Acu-Link.com,2013-04-11 17:14:00,
2013-04-11 12:29:00,58.6,39.0,29.84,NE,45,5.8,-999.0,48,-99.99,,,0.00,Acu-Link.com,2013-04-11 17:29:00,
2013-04-11 12:44:00,60.4,40.7,29.83,East,90,5.1,-999.0,48,-99.99,,,0.00,Acu-Link.com,2013-04-11 17:44:00,
2013-04-11 13:00:00,62.8,41.1,29.83,South,180,3.1,-999.0,45,-99.99,,,0.00,Acu-Link.com,2013-04-11 18:00:00,
2013-04-11 13:15:00,62.2,42.3,29.81,ENE,67,4.7,-999.0,48,-99.99,,,0.00,Acu-Link.com,2013-04-11 18:15:00,
2013-04-11 13:30:00,62.4,40.8,29.80,WSW,247,2.2,-999.0,45,-99.99,,,0.00,Acu-Link.com,2013-04-11 18:30:00,
2013-04-11 13:45:00,62.8,41.1,29.79,ENE,67,5.1,-999.0,45,-99.99,,,0.00,Acu-Link.com,2013-04-11 18:45:00,
2013-04-11 14:00:00,65.5,43.6,29.79,South,180,4.7,-999.0,45,-99.99,,,0.00,Acu-Link.com,2013-04-11 19:00:00,
2013-04-11 14:15:00,63.9,40.9,29.78,ESE,112,3.8,-999.0,43,-99.99,,,0.00,Acu-Link.com,2013-04-11 19:15:00,
2013-04-11 14:46:00,66.9,43.1,29.78,ENE,67,3.8,-999.0,42,-99.99,,,0.00,Acu-Link.com,2013-04-11 19:46:00,
2013-04-11 15:16:00,66.6,42.1,29.76,WSW,247,5.1,-999.0,41,-99.99,,,0.00,Acu-Link.com,2013-04-11 20:16:00,
2013-04-11 15:32:00,69.1,44.4,29.76,SSW,202,6.3,-999.0,41,-99.99,,,0.00,Acu-Link.com,2013-04-11 20:32:00,
2013-04-11 15:47:00,66.9,42.4,29.76,East,90,1.1,-999.0,41,-99.99,,,0.00,Acu-Link.com,2013-04-11 20:47:00,
2013-04-11 16:02:00,67.5,41.6,29.74,South,180,4.7,-999.0,39,-99.99,,,0.00,Acu-Link.com,2013-04-11 21:02:00,
2013-04-11 16:17:00,68.0,42.8,29.74,SSW,202,6.7,-999.0,40,-99.99,,,0.00,Acu-Link.com,2013-04-11 21:17:00,
2013-04-11 16:32:00,67.5,42.3,29.74,NW,315,2.7,-999.0,40,-99.99,,,0.00,Acu-Link.com,2013-04-11 21:32:00,
2013-04-11 16:48:00,68.9,43.6,29.74,NW,315,3.8,-999.0,40,-99.99,,,0.00,Acu-Link.com,2013-04-11 21:48:00,
2013-04-11 17:03:00,67.6,42.4,29.73,NNE,22,5.1,-999.0,40,-99.99,,,0.00,Acu-Link.com,2013-04-11 22:03:00,
2013-04-11 17:18:00,67.6,43.1,29.73,NE,45,6.3,-999.0,41,-99.99,,,0.00,Acu-Link.com,2013-04-11 22:18:00,
2013-04-11 17:33:00,68.9,44.9,29.72,NE,45,0.0,-999.0,42,-99.99,,,0.00,Acu-Link.com,2013-04-11 22:33:00,
2013-04-11 17:48:00,68.5,41.9,29.72,SSE,157,1.1,-999.0,38,-99.99,,,0.00,Acu-Link.com,2013-04-11 22:48:00,
2013-04-11 18:04:00,67.6,41.8,29.71,West,270,1.6,-999.0,39,-99.99,,,0.00,Acu-Link.com,2013-04-11 23:04:00,
2013-04-11 18:19:00,68.4,43.1,29.71,SSE,157,1.6,-999.0,40,-99.99,,,0.00,Acu-Link.com,2013-04-11 23:19:00,
2013-04-11 18:34:00,67.1,42.0,29.71,NNE,22,2.2,-999.0,40,-99.99,,,0.00,Acu-Link.com,2013-04-11 23:34:00,
2013-04-11 18:49:00,67.1,42.6,29.72,North,0,0.0,-999.0,41,-99.99,,,0.00,Acu-Link.com,2013-04-11 23:49:00,
2013-04-11 19:04:00,67.1,41.3,29.71,NNE,22,2.2,-999.0,39,-99.99,,,0.00,Acu-Link.com,2013-04-12 00:04:00,
2013-04-11 19:20:00,66.6,42.1,29.71,ENE,67,0.0,-999.0,41,-99.99,,,0.00,Acu-Link.com,2013-04-12 00:20:00,
2013-04-11 19:35:00,64.9,43.1,29.72,South,180,0.0,-999.0,45,-99.99,,,0.00,Acu-Link.com,2013-04-12 00:35:00,
2013-04-11 19:50:00,62.6,47.2,29.72,ENE,67,0.0,-999.0,57,-99.99,,,0.00,Acu-Link.com,2013-04-12 00:50:00,
2013-04-11 20:05:00,60.3,45.9,29.72,South,180,0.0,-999.0,59,-99.99,,,0.00,Acu-Link.com,2013-04-12 01:05:00,
2013-04-11 20:20:00,57.9,45.0,29.72,NNW,337,0.0,-999.0,62,-99.99,,,0.00,Acu-Link.com,2013-04-12 01:20:00,
2013-04-11 21:06:00,53.6,44.8,29.74,NNW,337,0.0,-999.0,72,-99.99,,,0.00,Acu-Link.com,2013-04-12 02:06:00,
2013-04-11 21:21:00,52.5,44.8,29.75,SW,225,0.0,-999.0,75,-99.99,,,0.00,Acu-Link.com,2013-04-12 02:21:00,
2013-04-11 21:37:00,52.5,45.5,29.76,South,180,0.0,-999.0,77,-99.99,,,0.00,Acu-Link.com,2013-04-12 02:37:00,
2013-04-11 21:52:00,52.0,45.7,29.77,NNE,22,0.0,-999.0,79,-99.99,,,0.00,Acu-Link.com,2013-04-12 02:52:00,
2013-04-11 22:07:00,51.4,45.8,29.77,SSW,202,0.0,-999.0,81,-99.99,,,0.00,Acu-Link.com,2013-04-12 03:07:00,
2013-04-11 22:22:00,50.7,45.1,29.77,South,180,0.0,-999.0,81,-99.99,,,0.00,Acu-Link.com,2013-04-12 03:22:00,
2013-04-11 22:37:00,50.0,45.4,29.79,South,180,0.0,-999.0,84,-99.99,,,0.00,Acu-Link.com,2013-04-12 03:37:00,
2013-04-11 22:53:00,50.0,45.7,29.79,South,180,0.0,-999.0,85,-99.99,,,0.00,Acu-Link.com,2013-04-12 03:53:00,
2013-04-11 23:08:00,49.5,45.1,29.79,SSW,202,1.6,-999.0,85,-99.99,,,0.00,Acu-Link.com,2013-04-12 04:08:00,
2013-04-11 23:23:00,51.3,45.6,29.79,South,180,2.2,-999.0,81,-99.99,,,0.00,Acu-Link.com,2013-04-12 04:23:00,
2013-04-11 23:38:00,51.4,46.1,29.80,South,180,1.6,-999.0,82,-99.99,,,0.00,Acu-Link.com,2013-04-12 04:38:00,
2013-04-11 23:53:00,51.4,46.1,29.80,ESE,112,2.2,-999.0,82,-99.99,,,0.00,Acu-Link.com,2013-04-12 04:53:00,